sensor_id;sensor_type;location;lat;lon;timestamp;P1;durP1;ratioP1;P2;durP2;ratioP2
52554;SDS011;38455;52.710;6.502;2022-10-16T00:00:33;11.80;;;2.95;;
52554;SDS011;38455;52.710;6.502;2022-10-16T00:03:01;8.57;;;1.63;;
52554;SDS011;38455;52.710;6.502;2022-10-16T00:05:27;10.68;;;1.90;;
52554;SDS011;38455;52.710;6.502;2022-10-16T00:07:53;5.05;;;1.88;;
52554;SDS011;38455;52.710;6.502;2022-10-16T00:10:18;11.70;;;3.45;;
52554;SDS011;38455;52.710;6.502;2022-10-16T00:12:44;11.15;;;2.47;;
52554;SDS011;38455;52.710;6.502;2022-10-16T00:15:10;9.07;;;1.73;;
52554;SDS011;38455;52.710;6.502;2022-10-16T00:17:35;4.40;;;1.75;;
52554;SDS011;38455;52.710;6.502;2022-10-16T00:20:01;6.35;;;1.85;;
52554;SDS011;38455;52.710;6.502;2022-10-16T00:22:27;7.20;;;1.83;;
52554;SDS011;38455;52.710;6.502;2022-10-16T00:24:53;10.63;;;1.75;;
52554;SDS011;38455;52.710;6.502;2022-10-16T00:27:18;8.25;;;2.42;;
52554;SDS011;38455;52.710;6.502;2022-10-16T00:29:44;5.95;;;1.77;;
52554;SDS011;38455;52.710;6.502;2022-10-16T00:32:10;9.60;;;2.40;;
52554;SDS011;38455;52.710;6.502;2022-10-16T00:34:35;6.38;;;2.08;;
52554;SDS011;38455;52.710;6.502;2022-10-16T00:37:02;6.30;;;2.13;;
52554;SDS011;38455;52.710;6.502;2022-10-16T00:39:28;6.28;;;2.03;;
52554;SDS011;38455;52.710;6.502;2022-10-16T00:41:53;11.90;;;1.83;;
52554;SDS011;38455;52.710;6.502;2022-10-16T00:47:13;5.65;;;1.88;;
52554;SDS011;38455;52.710;6.502;2022-10-16T00:49:43;8.73;;;2.05;;
52554;SDS011;38455;52.710;6.502;2022-10-16T00:52:09;7.10;;;2.10;;
52554;SDS011;38455;52.710;6.502;2022-10-16T00:54:35;6.35;;;1.75;;
52554;SDS011;38455;52.710;6.502;2022-10-16T00:57:02;4.82;;;2.03;;
52554;SDS011;38455;52.710;6.502;2022-10-16T00:59:34;4.63;;;1.83;;
52554;SDS011;38455;52.710;6.502;2022-10-16T01:02:03;47.40;;;3.38;;
52554;SDS011;38455;52.710;6.502;2022-10-16T01:04:47;4.95;;;1.92;;
52554;SDS011;38455;52.710;6.502;2022-10-16T01:15:08;6.43;;;2.20;;
52554;SDS011;38455;52.710;6.502;2022-10-16T01:20:10;6.40;;;2.83;;
52554;SDS011;38455;52.710;6.502;2022-10-16T01:22:59;8.27;;;2.40;;
52554;SDS011;38455;52.710;6.502;2022-10-16T01:28:14;4.90;;;2.78;;
52554;SDS011;38455;52.710;6.502;2022-10-16T01:30:42;7.85;;;2.90;;
52554;SDS011;38455;52.710;6.502;2022-10-16T01:33:13;8.35;;;2.72;;
52554;SDS011;38455;52.710;6.502;2022-10-16T01:35:52;5.57;;;2.60;;
52554;SDS011;38455;52.710;6.502;2022-10-16T01:38:29;9.40;;;2.85;;
52554;SDS011;38455;52.710;6.502;2022-10-16T01:43:28;6.80;;;2.85;;
52554;SDS011;38455;52.710;6.502;2022-10-16T01:46:02;8.07;;;2.47;;
52554;SDS011;38455;52.710;6.502;2022-10-16T01:48:28;5.97;;;3.10;;
52554;SDS011;38455;52.710;6.502;2022-10-16T01:51:17;6.40;;;3.03;;
52554;SDS011;38455;52.710;6.502;2022-10-16T01:53:43;5.75;;;2.60;;
52554;SDS011;38455;52.710;6.502;2022-10-16T01:56:13;6.50;;;2.92;;
52554;SDS011;38455;52.710;6.502;2022-10-16T01:58:44;8.88;;;2.63;;
52554;SDS011;38455;52.710;6.502;2022-10-16T02:01:13;10.05;;;3.17;;
52554;SDS011;38455;52.710;6.502;2022-10-16T02:03:43;9.20;;;2.45;;
52554;SDS011;38455;52.710;6.502;2022-10-16T02:06:11;9.63;;;2.53;;
52554;SDS011;38455;52.710;6.502;2022-10-16T02:08:37;7.88;;;3.03;;
52554;SDS011;38455;52.710;6.502;2022-10-16T02:11:05;7.90;;;2.50;;
52554;SDS011;38455;52.710;6.502;2022-10-16T02:13:39;6.90;;;3.28;;
52554;SDS011;38455;52.710;6.502;2022-10-16T02:16:10;7.75;;;2.85;;
52554;SDS011;38455;52.710;6.502;2022-10-16T02:18:37;9.57;;;2.85;;
52554;SDS011;38455;52.710;6.502;2022-10-16T02:21:20;5.35;;;2.65;;
52554;SDS011;38455;52.710;6.502;2022-10-16T02:24:11;8.73;;;3.47;;
52554;SDS011;38455;52.710;6.502;2022-10-16T02:29:38;10.50;;;2.38;;
52554;SDS011;38455;52.710;6.502;2022-10-16T02:32:09;5.32;;;2.28;;
52554;SDS011;38455;52.710;6.502;2022-10-16T02:34:37;7.55;;;2.53;;
52554;SDS011;38455;52.710;6.502;2022-10-16T02:39:52;10.93;;;3.45;;
52554;SDS011;38455;52.710;6.502;2022-10-16T02:42:19;7.40;;;2.58;;
52554;SDS011;38455;52.710;6.502;2022-10-16T02:44:45;7.15;;;2.15;;
52554;SDS011;38455;52.710;6.502;2022-10-16T02:47:11;5.38;;;2.35;;
52554;SDS011;38455;52.710;6.502;2022-10-16T02:49:37;4.55;;;2.53;;
52554;SDS011;38455;52.710;6.502;2022-10-16T02:52:03;4.95;;;2.40;;
52554;SDS011;38455;52.710;6.502;2022-10-16T02:54:28;7.57;;;2.72;;
52554;SDS011;38455;52.710;6.502;2022-10-16T02:56:54;7.05;;;2.50;;
52554;SDS011;38455;52.710;6.502;2022-10-16T02:59:19;5.70;;;2.63;;
52554;SDS011;38455;52.710;6.502;2022-10-16T03:01:45;5.75;;;3.00;;
52554;SDS011;38455;52.710;6.502;2022-10-16T03:04:11;5.47;;;3.28;;
52554;SDS011;38455;52.710;6.502;2022-10-16T03:06:36;6.15;;;2.63;;
52554;SDS011;38455;52.710;6.502;2022-10-16T03:09:02;5.32;;;2.50;;
52554;SDS011;38455;52.710;6.502;2022-10-16T03:11:27;11.38;;;2.95;;
52554;SDS011;38455;52.710;6.502;2022-10-16T03:13:53;5.57;;;2.50;;
52554;SDS011;38455;52.710;6.502;2022-10-16T03:16:19;4.90;;;2.22;;
52554;SDS011;38455;52.710;6.502;2022-10-16T03:18:47;6.15;;;2.90;;
52554;SDS011;38455;52.710;6.502;2022-10-16T03:21:14;4.10;;;2.92;;
52554;SDS011;38455;52.710;6.502;2022-10-16T03:23:40;5.93;;;2.97;;
52554;SDS011;38455;52.710;6.502;2022-10-16T03:26:05;5.60;;;2.65;;
52554;SDS011;38455;52.710;6.502;2022-10-16T03:28:31;5.10;;;2.80;;
52554;SDS011;38455;52.710;6.502;2022-10-16T03:30:57;7.55;;;2.90;;
52554;SDS011;38455;52.710;6.502;2022-10-16T03:33:22;6.38;;;3.20;;
52554;SDS011;38455;52.710;6.502;2022-10-16T03:35:52;8.23;;;3.25;;
52554;SDS011;38455;52.710;6.502;2022-10-16T03:38:18;8.23;;;3.00;;
52554;SDS011;38455;52.710;6.502;2022-10-16T03:40:44;7.10;;;3.22;;
52554;SDS011;38455;52.710;6.502;2022-10-16T03:43:09;7.53;;;3.00;;
52554;SDS011;38455;52.710;6.502;2022-10-16T03:45:35;4.90;;;3.13;;
52554;SDS011;38455;52.710;6.502;2022-10-16T03:48:01;8.40;;;3.08;;
52554;SDS011;38455;52.710;6.502;2022-10-16T03:50:28;6.28;;;3.03;;
52554;SDS011;38455;52.710;6.502;2022-10-16T03:52:54;6.22;;;3.28;;
52554;SDS011;38455;52.710;6.502;2022-10-16T03:55:19;6.53;;;3.13;;
52554;SDS011;38455;52.710;6.502;2022-10-16T03:57:45;8.95;;;3.58;;
52554;SDS011;38455;52.710;6.502;2022-10-16T04:00:11;5.30;;;3.63;;
52554;SDS011;38455;52.710;6.502;2022-10-16T04:02:37;4.95;;;3.50;;
52554;SDS011;38455;52.710;6.502;2022-10-16T04:05:03;11.30;;;4.30;;
52554;SDS011;38455;52.710;6.502;2022-10-16T04:07:28;6.35;;;3.22;;
52554;SDS011;38455;52.710;6.502;2022-10-16T04:09:54;6.20;;;3.80;;
52554;SDS011;38455;52.710;6.502;2022-10-16T04:12:20;10.05;;;3.72;;
52554;SDS011;38455;52.710;6.502;2022-10-16T04:14:46;7.38;;;4.03;;
52554;SDS011;38455;52.710;6.502;2022-10-16T04:17:11;6.95;;;3.83;;
52554;SDS011;38455;52.710;6.502;2022-10-16T04:19:37;7.95;;;3.60;;
52554;SDS011;38455;52.710;6.502;2022-10-16T04:22:03;11.20;;;3.63;;
52554;SDS011;38455;52.710;6.502;2022-10-16T04:24:28;7.63;;;3.72;;
52554;SDS011;38455;52.710;6.502;2022-10-16T04:26:54;6.68;;;4.35;;
52554;SDS011;38455;52.710;6.502;2022-10-16T04:29:20;7.65;;;4.30;;
52554;SDS011;38455;52.710;6.502;2022-10-16T04:31:46;8.68;;;4.32;;
52554;SDS011;38455;52.710;6.502;2022-10-16T04:34:11;8.27;;;4.13;;
52554;SDS011;38455;52.710;6.502;2022-10-16T04:36:37;10.32;;;4.45;;
52554;SDS011;38455;52.710;6.502;2022-10-16T04:39:03;8.77;;;3.78;;
52554;SDS011;38455;52.710;6.502;2022-10-16T04:41:28;8.63;;;3.85;;
52554;SDS011;38455;52.710;6.502;2022-10-16T04:43:54;8.98;;;3.78;;
52554;SDS011;38455;52.710;6.502;2022-10-16T04:46:19;8.52;;;3.60;;
52554;SDS011;38455;52.710;6.502;2022-10-16T04:48:45;6.95;;;3.65;;
52554;SDS011;38455;52.710;6.502;2022-10-16T04:51:11;6.65;;;4.40;;
52554;SDS011;38455;52.710;6.502;2022-10-16T04:53:37;7.28;;;4.00;;
52554;SDS011;38455;52.710;6.502;2022-10-16T04:56:03;5.65;;;3.53;;
52554;SDS011;38455;52.710;6.502;2022-10-16T04:58:29;6.97;;;3.85;;
52554;SDS011;38455;52.710;6.502;2022-10-16T05:00:55;7.07;;;3.85;;
52554;SDS011;38455;52.710;6.502;2022-10-16T05:03:20;6.03;;;3.60;;
52554;SDS011;38455;52.710;6.502;2022-10-16T05:05:46;8.23;;;4.03;;
52554;SDS011;38455;52.710;6.502;2022-10-16T05:08:15;5.78;;;3.60;;
52554;SDS011;38455;52.710;6.502;2022-10-16T05:10:42;7.95;;;3.85;;
52554;SDS011;38455;52.710;6.502;2022-10-16T05:13:08;8.07;;;3.97;;
52554;SDS011;38455;52.710;6.502;2022-10-16T05:15:34;8.95;;;3.72;;
52554;SDS011;38455;52.710;6.502;2022-10-16T05:17:59;7.50;;;4.13;;
52554;SDS011;38455;52.710;6.502;2022-10-16T05:20:25;11.35;;;4.43;;
52554;SDS011;38455;52.710;6.502;2022-10-16T05:22:51;7.95;;;3.78;;
52554;SDS011;38455;52.710;6.502;2022-10-16T05:25:16;6.93;;;3.38;;
52554;SDS011;38455;52.710;6.502;2022-10-16T05:27:42;8.02;;;4.38;;
52554;SDS011;38455;52.710;6.502;2022-10-16T05:30:08;5.22;;;3.30;;
52554;SDS011;38455;52.710;6.502;2022-10-16T05:32:34;7.07;;;3.45;;
52554;SDS011;38455;52.710;6.502;2022-10-16T05:34:59;5.30;;;3.47;;
52554;SDS011;38455;52.710;6.502;2022-10-16T05:37:27;5.55;;;3.50;;
52554;SDS011;38455;52.710;6.502;2022-10-16T05:39:52;7.88;;;3.65;;
52554;SDS011;38455;52.710;6.502;2022-10-16T05:42:18;6.85;;;3.20;;
52554;SDS011;38455;52.710;6.502;2022-10-16T05:44:44;7.85;;;3.63;;
52554;SDS011;38455;52.710;6.502;2022-10-16T05:47:09;5.85;;;3.47;;
52554;SDS011;38455;52.710;6.502;2022-10-16T05:49:37;5.63;;;3.20;;
52554;SDS011;38455;52.710;6.502;2022-10-16T05:52:02;12.68;;;4.10;;
52554;SDS011;38455;52.710;6.502;2022-10-16T05:54:28;5.68;;;3.35;;
52554;SDS011;38455;52.710;6.502;2022-10-16T05:56:53;7.55;;;3.33;;
52554;SDS011;38455;52.710;6.502;2022-10-16T05:59:19;8.98;;;3.47;;
52554;SDS011;38455;52.710;6.502;2022-10-16T06:01:45;4.72;;;3.17;;
52554;SDS011;38455;52.710;6.502;2022-10-16T06:04:10;8.98;;;3.42;;
52554;SDS011;38455;52.710;6.502;2022-10-16T06:06:36;8.05;;;3.38;;
52554;SDS011;38455;52.710;6.502;2022-10-16T06:09:02;7.28;;;3.13;;
52554;SDS011;38455;52.710;6.502;2022-10-16T06:11:29;5.53;;;3.03;;
52554;SDS011;38455;52.710;6.502;2022-10-16T06:13:56;6.97;;;3.38;;
52554;SDS011;38455;52.710;6.502;2022-10-16T06:16:25;4.38;;;2.78;;
52554;SDS011;38455;52.710;6.502;2022-10-16T06:18:52;5.28;;;2.72;;
52554;SDS011;38455;52.710;6.502;2022-10-16T06:21:19;4.25;;;2.70;;
52554;SDS011;38455;52.710;6.502;2022-10-16T06:23:47;4.30;;;2.85;;
52554;SDS011;38455;52.710;6.502;2022-10-16T06:26:13;8.38;;;2.80;;
52554;SDS011;38455;52.710;6.502;2022-10-16T06:28:41;7.53;;;3.00;;
52554;SDS011;38455;52.710;6.502;2022-10-16T06:31:08;6.35;;;2.80;;
52554;SDS011;38455;52.710;6.502;2022-10-16T06:33:35;8.43;;;2.58;;
52554;SDS011;38455;52.710;6.502;2022-10-16T06:36:05;5.45;;;2.75;;
52554;SDS011;38455;52.710;6.502;2022-10-16T06:38:36;10.43;;;2.60;;
52554;SDS011;38455;52.710;6.502;2022-10-16T06:41:03;4.57;;;2.50;;
52554;SDS011;38455;52.710;6.502;2022-10-16T06:43:31;4.25;;;2.22;;
52554;SDS011;38455;52.710;6.502;2022-10-16T06:45:58;4.00;;;2.55;;
52554;SDS011;38455;52.710;6.502;2022-10-16T06:48:24;6.70;;;2.33;;
52554;SDS011;38455;52.710;6.502;2022-10-16T06:50:57;3.72;;;2.40;;
52554;SDS011;38455;52.710;6.502;2022-10-16T06:53:24;7.00;;;2.67;;
52554;SDS011;38455;52.710;6.502;2022-10-16T06:55:51;5.65;;;2.20;;
52554;SDS011;38455;52.710;6.502;2022-10-16T06:58:16;3.80;;;2.03;;
52554;SDS011;38455;52.710;6.502;2022-10-16T07:00:42;6.07;;;2.40;;
52554;SDS011;38455;52.710;6.502;2022-10-16T07:03:08;6.40;;;2.83;;
52554;SDS011;38455;52.710;6.502;2022-10-16T07:05:37;5.18;;;1.98;;
52554;SDS011;38455;52.710;6.502;2022-10-16T07:08:06;3.28;;;2.00;;
52554;SDS011;38455;52.710;6.502;2022-10-16T07:10:33;4.20;;;1.95;;
52554;SDS011;38455;52.710;6.502;2022-10-16T07:12:59;4.65;;;2.13;;
52554;SDS011;38455;52.710;6.502;2022-10-16T07:15:25;7.32;;;2.38;;
52554;SDS011;38455;52.710;6.502;2022-10-16T07:17:51;5.30;;;2.25;;
52554;SDS011;38455;52.710;6.502;2022-10-16T07:20:17;8.52;;;2.22;;
52554;SDS011;38455;52.710;6.502;2022-10-16T07:22:43;5.13;;;1.90;;
52554;SDS011;38455;52.710;6.502;2022-10-16T07:25:08;9.05;;;2.42;;
52554;SDS011;38455;52.710;6.502;2022-10-16T07:27:34;19.15;;;3.33;;
52554;SDS011;38455;52.710;6.502;2022-10-16T07:30:00;3.67;;;1.73;;
52554;SDS011;38455;52.710;6.502;2022-10-16T07:32:26;9.80;;;1.80;;
52554;SDS011;38455;52.710;6.502;2022-10-16T07:34:52;5.43;;;1.70;;
52554;SDS011;38455;52.710;6.502;2022-10-16T07:37:18;6.25;;;1.75;;
52554;SDS011;38455;52.710;6.502;2022-10-16T07:39:43;5.75;;;1.67;;
52554;SDS011;38455;52.710;6.502;2022-10-16T07:42:09;4.63;;;2.30;;
52554;SDS011;38455;52.710;6.502;2022-10-16T07:44:35;6.95;;;2.00;;
52554;SDS011;38455;52.710;6.502;2022-10-16T07:47:01;8.00;;;2.78;;
52554;SDS011;38455;52.710;6.502;2022-10-16T07:49:26;7.35;;;1.67;;
52554;SDS011;38455;52.710;6.502;2022-10-16T07:51:52;6.65;;;1.63;;
52554;SDS011;38455;52.710;6.502;2022-10-16T07:54:18;4.95;;;1.52;;
52554;SDS011;38455;52.710;6.502;2022-10-16T07:56:44;5.18;;;1.50;;
52554;SDS011;38455;52.710;6.502;2022-10-16T07:59:09;4.90;;;1.33;;
52554;SDS011;38455;52.710;6.502;2022-10-16T08:01:35;4.20;;;1.35;;
52554;SDS011;38455;52.710;6.502;2022-10-16T08:04:01;5.20;;;1.30;;
52554;SDS011;38455;52.710;6.502;2022-10-16T08:06:27;3.58;;;1.20;;
52554;SDS011;38455;52.710;6.502;2022-10-16T08:08:52;5.38;;;1.50;;
52554;SDS011;38455;52.710;6.502;2022-10-16T08:11:18;5.05;;;1.30;;
52554;SDS011;38455;52.710;6.502;2022-10-16T08:13:44;3.08;;;1.30;;
52554;SDS011;38455;52.710;6.502;2022-10-16T08:16:09;5.93;;;1.95;;
52554;SDS011;38455;52.710;6.502;2022-10-16T08:18:36;3.80;;;1.42;;
52554;SDS011;38455;52.710;6.502;2022-10-16T08:21:03;9.20;;;2.90;;
52554;SDS011;38455;52.710;6.502;2022-10-16T08:23:30;3.53;;;1.95;;
52554;SDS011;38455;52.710;6.502;2022-10-16T08:26:01;6.55;;;2.28;;
52554;SDS011;38455;52.710;6.502;2022-10-16T08:28:28;3.78;;;1.98;;
52554;SDS011;38455;52.710;6.502;2022-10-16T08:30:54;5.65;;;1.90;;
52554;SDS011;38455;52.710;6.502;2022-10-16T08:33:21;5.63;;;1.73;;
52554;SDS011;38455;52.710;6.502;2022-10-16T08:35:53;4.82;;;1.80;;
52554;SDS011;38455;52.710;6.502;2022-10-16T08:38:19;4.88;;;1.58;;
52554;SDS011;38455;52.710;6.502;2022-10-16T08:40:45;3.22;;;1.48;;
52554;SDS011;38455;52.710;6.502;2022-10-16T08:48:47;5.00;;;1.85;;
52554;SDS011;38455;52.710;6.502;2022-10-16T08:51:19;6.65;;;1.50;;
52554;SDS011;38455;52.710;6.502;2022-10-16T08:53:54;5.78;;;1.52;;
52554;SDS011;38455;52.710;6.502;2022-10-16T08:56:22;5.38;;;1.40;;
52554;SDS011;38455;52.710;6.502;2022-10-16T08:58:49;3.13;;;1.63;;
52554;SDS011;38455;52.710;6.502;2022-10-16T09:01:17;2.35;;;1.08;;
52554;SDS011;38455;52.710;6.502;2022-10-16T09:04:03;5.70;;;1.40;;
52554;SDS011;38455;52.710;6.502;2022-10-16T09:07:09;6.82;;;1.35;;
52554;SDS011;38455;52.710;6.502;2022-10-16T09:09:53;4.15;;;1.30;;
52554;SDS011;38455;52.710;6.502;2022-10-16T09:12:40;4.05;;;1.10;;
52554;SDS011;38455;52.710;6.502;2022-10-16T09:23:17;3.50;;;1.30;;
52554;SDS011;38455;52.710;6.502;2022-10-16T09:25:54;4.10;;;1.17;;
52554;SDS011;38455;52.710;6.502;2022-10-16T09:28:21;9.15;;;1.40;;
52554;SDS011;38455;52.710;6.502;2022-10-16T09:30:46;8.77;;;2.03;;
52554;SDS011;38455;52.710;6.502;2022-10-16T09:33:15;5.82;;;1.50;;
52554;SDS011;38455;52.710;6.502;2022-10-16T09:35:44;3.95;;;1.20;;
52554;SDS011;38455;52.710;6.502;2022-10-16T09:38:21;6.78;;;1.58;;
52554;SDS011;38455;52.710;6.502;2022-10-16T09:40:50;8.05;;;1.73;;
52554;SDS011;38455;52.710;6.502;2022-10-16T09:43:23;5.55;;;1.40;;
52554;SDS011;38455;52.710;6.502;2022-10-16T09:46:03;8.48;;;1.70;;
52554;SDS011;38455;52.710;6.502;2022-10-16T09:48:33;5.95;;;1.27;;
52554;SDS011;38455;52.710;6.502;2022-10-16T09:51:04;4.57;;;1.45;;
52554;SDS011;38455;52.710;6.502;2022-10-16T09:54:12;7.30;;;1.65;;
52554;SDS011;38455;52.710;6.502;2022-10-16T09:56:28;5.20;;;1.45;;
52554;SDS011;38455;52.710;6.502;2022-10-16T09:58:58;7.75;;;1.60;;
52554;SDS011;38455;52.710;6.502;2022-10-16T10:01:42;5.43;;;1.40;;
52554;SDS011;38455;52.710;6.502;2022-10-16T10:04:11;5.88;;;1.63;;
52554;SDS011;38455;52.710;6.502;2022-10-16T10:06:46;5.28;;;1.25;;
52554;SDS011;38455;52.710;6.502;2022-10-16T10:09:23;8.57;;;1.52;;
52554;SDS011;38455;52.710;6.502;2022-10-16T10:19:46;7.00;;;1.45;;
52554;SDS011;38455;52.710;6.502;2022-10-16T10:22:13;5.53;;;1.60;;
52554;SDS011;38455;52.710;6.502;2022-10-16T10:33:48;6.93;;;1.55;;
52554;SDS011;38455;52.710;6.502;2022-10-16T10:38:51;11.70;;;1.85;;
52554;SDS011;38455;52.710;6.502;2022-10-16T10:44:16;8.55;;;1.70;;
52554;SDS011;38455;52.710;6.502;2022-10-16T10:46:55;6.68;;;1.80;;
52554;SDS011;38455;52.710;6.502;2022-10-16T10:55:10;6.80;;;2.17;;
52554;SDS011;38455;52.710;6.502;2022-10-16T11:03:02;6.00;;;1.40;;
52554;SDS011;38455;52.710;6.502;2022-10-16T11:05:53;8.77;;;2.13;;
52554;SDS011;38455;52.710;6.502;2022-10-16T11:08:46;10.35;;;1.55;;
52554;SDS011;38455;52.710;6.502;2022-10-16T11:14:14;5.72;;;1.45;;
52554;SDS011;38455;52.710;6.502;2022-10-16T11:16:55;5.88;;;1.20;;
52554;SDS011;38455;52.710;6.502;2022-10-16T11:22:20;7.00;;;1.48;;
52554;SDS011;38455;52.710;6.502;2022-10-16T11:30:33;9.90;;;1.83;;
52554;SDS011;38455;52.710;6.502;2022-10-16T11:33:31;6.65;;;1.83;;
52554;SDS011;38455;52.710;6.502;2022-10-16T11:38:56;6.50;;;1.55;;
52554;SDS011;38455;52.710;6.502;2022-10-16T11:49:30;10.40;;;1.52;;
52554;SDS011;38455;52.710;6.502;2022-10-16T11:54:41;6.03;;;1.35;;
52554;SDS011;38455;52.710;6.502;2022-10-16T11:57:17;9.93;;;1.80;;
52554;SDS011;38455;52.710;6.502;2022-10-16T12:02:39;9.75;;;1.52;;
52554;SDS011;38455;52.710;6.502;2022-10-16T12:08:25;8.02;;;2.10;;
52554;SDS011;38455;52.710;6.502;2022-10-16T12:10:52;4.18;;;1.50;;
52554;SDS011;38455;52.710;6.502;2022-10-16T12:13:36;8.05;;;1.65;;
52554;SDS011;38455;52.710;6.502;2022-10-16T12:16:24;7.35;;;1.60;;
52554;SDS011;38455;52.710;6.502;2022-10-16T12:21:30;9.20;;;2.45;;
52554;SDS011;38455;52.710;6.502;2022-10-16T12:23:56;8.35;;;1.85;;
52554;SDS011;38455;52.710;6.502;2022-10-16T12:26:28;15.18;;;2.58;;
52554;SDS011;38455;52.710;6.502;2022-10-16T12:29:09;12.75;;;2.80;;
52554;SDS011;38455;52.710;6.502;2022-10-16T12:31:55;6.63;;;1.63;;
52554;SDS011;38455;52.710;6.502;2022-10-16T12:34:42;5.75;;;1.77;;
52554;SDS011;38455;52.710;6.502;2022-10-16T12:37:10;7.63;;;1.58;;
52554;SDS011;38455;52.710;6.502;2022-10-16T12:39:44;7.75;;;1.50;;
52554;SDS011;38455;52.710;6.502;2022-10-16T12:42:31;9.13;;;2.08;;
52554;SDS011;38455;52.710;6.502;2022-10-16T12:44:59;7.13;;;1.77;;
52554;SDS011;38455;52.710;6.502;2022-10-16T12:49:57;10.40;;;1.83;;
52554;SDS011;38455;52.710;6.502;2022-10-16T12:52:24;9.82;;;1.65;;
52554;SDS011;38455;52.710;6.502;2022-10-16T12:55:02;10.60;;;1.88;;
52554;SDS011;38455;52.710;6.502;2022-10-16T13:03:30;9.45;;;1.95;;
52554;SDS011;38455;52.710;6.502;2022-10-16T13:30:21;7.72;;;1.48;;
52554;SDS011;38455;52.710;6.502;2022-10-16T13:32:50;8.57;;;1.70;;
52554;SDS011;38455;52.710;6.502;2022-10-16T13:35:25;9.23;;;2.38;;
52554;SDS011;38455;52.710;6.502;2022-10-16T13:38:03;14.82;;;1.75;;
52554;SDS011;38455;52.710;6.502;2022-10-16T13:43:19;10.50;;;2.42;;
52554;SDS011;38455;52.710;6.502;2022-10-16T13:46:16;6.55;;;1.52;;
52554;SDS011;38455;52.710;6.502;2022-10-16T13:48:59;8.48;;;1.40;;
52554;SDS011;38455;52.710;6.502;2022-10-16T13:51:27;11.30;;;2.13;;
52554;SDS011;38455;52.710;6.502;2022-10-16T13:53:54;5.05;;;1.63;;
52554;SDS011;38455;52.710;6.502;2022-10-16T13:56:22;7.38;;;1.55;;
52554;SDS011;38455;52.710;6.502;2022-10-16T13:59:01;6.35;;;1.25;;
52554;SDS011;38455;52.710;6.502;2022-10-16T14:01:35;6.10;;;1.40;;
52554;SDS011;38455;52.710;6.502;2022-10-16T14:04:07;5.78;;;1.40;;
52554;SDS011;38455;52.710;6.502;2022-10-16T14:06:35;11.25;;;2.08;;
52554;SDS011;38455;52.710;6.502;2022-10-16T14:09:35;6.97;;;1.85;;
52554;SDS011;38455;52.710;6.502;2022-10-16T14:11:56;7.72;;;1.52;;
52554;SDS011;38455;52.710;6.502;2022-10-16T14:14:26;5.40;;;1.25;;
52554;SDS011;38455;52.710;6.502;2022-10-16T14:17:13;7.32;;;1.77;;
52554;SDS011;38455;52.710;6.502;2022-10-16T14:19:50;7.32;;;1.50;;
52554;SDS011;38455;52.710;6.502;2022-10-16T14:22:30;5.20;;;1.30;;
52554;SDS011;38455;52.710;6.502;2022-10-16T14:25:00;7.45;;;1.98;;
52554;SDS011;38455;52.710;6.502;2022-10-16T14:32:32;5.78;;;1.42;;
52554;SDS011;38455;52.710;6.502;2022-10-16T14:34:58;8.40;;;1.58;;
52554;SDS011;38455;52.710;6.502;2022-10-16T14:37:25;6.60;;;1.50;;
52554;SDS011;38455;52.710;6.502;2022-10-16T14:39:52;7.22;;;1.20;;
52554;SDS011;38455;52.710;6.502;2022-10-16T14:42:19;10.50;;;1.90;;
52554;SDS011;38455;52.710;6.502;2022-10-16T14:44:49;7.85;;;1.67;;
52554;SDS011;38455;52.710;6.502;2022-10-16T14:47:24;11.85;;;1.95;;
52554;SDS011;38455;52.710;6.502;2022-10-16T14:49:54;5.82;;;1.13;;
52554;SDS011;38455;52.710;6.502;2022-10-16T14:52:23;14.40;;;2.13;;
52554;SDS011;38455;52.710;6.502;2022-10-16T14:54:49;7.93;;;1.58;;
52554;SDS011;38455;52.710;6.502;2022-10-16T14:57:18;7.70;;;1.73;;
52554;SDS011;38455;52.710;6.502;2022-10-16T14:59:47;9.88;;;1.52;;
52554;SDS011;38455;52.710;6.502;2022-10-16T15:04:43;7.70;;;2.00;;
52554;SDS011;38455;52.710;6.502;2022-10-16T15:07:08;5.70;;;1.30;;
52554;SDS011;38455;52.710;6.502;2022-10-16T15:09:34;8.00;;;2.38;;
52554;SDS011;38455;52.710;6.502;2022-10-16T15:12:00;10.10;;;1.40;;
52554;SDS011;38455;52.710;6.502;2022-10-16T15:14:25;3.70;;;1.42;;
52554;SDS011;38455;52.710;6.502;2022-10-16T15:16:51;6.95;;;1.70;;
52554;SDS011;38455;52.710;6.502;2022-10-16T15:19:16;10.07;;;1.50;;
52554;SDS011;38455;52.710;6.502;2022-10-16T15:21:42;8.40;;;2.00;;
52554;SDS011;38455;52.710;6.502;2022-10-16T15:24:09;10.48;;;1.85;;
52554;SDS011;38455;52.710;6.502;2022-10-16T15:26:38;14.07;;;1.75;;
52554;SDS011;38455;52.710;6.502;2022-10-16T15:29:04;6.80;;;1.60;;
52554;SDS011;38455;52.710;6.502;2022-10-16T15:31:29;6.97;;;1.40;;
52554;SDS011;38455;52.710;6.502;2022-10-16T15:33:55;5.45;;;1.38;;
52554;SDS011;38455;52.710;6.502;2022-10-16T15:36:30;7.10;;;1.30;;
52554;SDS011;38455;52.710;6.502;2022-10-16T15:39:02;4.10;;;1.20;;
52554;SDS011;38455;52.710;6.502;2022-10-16T15:41:28;6.78;;;1.70;;
52554;SDS011;38455;52.710;6.502;2022-10-16T15:43:54;11.57;;;1.63;;
52554;SDS011;38455;52.710;6.502;2022-10-16T15:46:20;14.15;;;1.88;;
52554;SDS011;38455;52.710;6.502;2022-10-16T15:48:48;14.13;;;2.33;;
52554;SDS011;38455;52.710;6.502;2022-10-16T15:51:15;11.77;;;2.00;;
52554;SDS011;38455;52.710;6.502;2022-10-16T15:53:42;11.05;;;2.03;;
52554;SDS011;38455;52.710;6.502;2022-10-16T15:56:08;17.55;;;2.58;;
52554;SDS011;38455;52.710;6.502;2022-10-16T15:58:35;5.05;;;2.15;;
52554;SDS011;38455;52.710;6.502;2022-10-16T16:01:02;7.57;;;1.48;;
52554;SDS011;38455;52.710;6.502;2022-10-16T16:03:31;5.18;;;1.50;;
52554;SDS011;38455;52.710;6.502;2022-10-16T16:05:57;7.63;;;1.70;;
52554;SDS011;38455;52.710;6.502;2022-10-16T16:08:28;5.55;;;2.22;;
52554;SDS011;38455;52.710;6.502;2022-10-16T16:11:00;9.65;;;2.17;;
52554;SDS011;38455;52.710;6.502;2022-10-16T16:13:31;11.07;;;2.67;;
52554;SDS011;38455;52.710;6.502;2022-10-16T16:15:56;7.80;;;1.67;;
52554;SDS011;38455;52.710;6.502;2022-10-16T16:18:23;51.47;;;3.70;;
52554;SDS011;38455;52.710;6.502;2022-10-16T16:20:49;11.77;;;1.70;;
52554;SDS011;38455;52.710;6.502;2022-10-16T16:23:15;27.63;;;3.60;;
52554;SDS011;38455;52.710;6.502;2022-10-16T16:25:41;9.35;;;2.63;;
52554;SDS011;38455;52.710;6.502;2022-10-16T16:28:07;11.05;;;3.50;;
52554;SDS011;38455;52.710;6.502;2022-10-16T16:30:35;5.95;;;1.55;;
52554;SDS011;38455;52.710;6.502;2022-10-16T16:33:01;8.32;;;2.40;;
52554;SDS011;38455;52.710;6.502;2022-10-16T16:35:27;20.08;;;2.97;;
52554;SDS011;38455;52.710;6.502;2022-10-16T16:37:52;14.75;;;3.78;;
52554;SDS011;38455;52.710;6.502;2022-10-16T16:40:18;10.02;;;2.00;;
52554;SDS011;38455;52.710;6.502;2022-10-16T16:42:43;7.75;;;2.25;;
52554;SDS011;38455;52.710;6.502;2022-10-16T16:45:09;6.75;;;2.40;;
52554;SDS011;38455;52.710;6.502;2022-10-16T16:47:35;8.23;;;2.72;;
52554;SDS011;38455;52.710;6.502;2022-10-16T16:50:01;8.77;;;2.67;;
52554;SDS011;38455;52.710;6.502;2022-10-16T16:52:30;9.60;;;2.53;;
52554;SDS011;38455;52.710;6.502;2022-10-16T16:54:55;11.40;;;2.55;;
52554;SDS011;38455;52.710;6.502;2022-10-16T16:57:21;11.55;;;2.25;;
52554;SDS011;38455;52.710;6.502;2022-10-16T16:59:46;10.45;;;3.25;;
52554;SDS011;38455;52.710;6.502;2022-10-16T17:02:15;46.35;;;7.50;;
52554;SDS011;38455;52.710;6.502;2022-10-16T17:04:40;14.95;;;5.22;;
52554;SDS011;38455;52.710;6.502;2022-10-16T17:07:06;17.30;;;4.68;;
52554;SDS011;38455;52.710;6.502;2022-10-16T17:09:32;10.13;;;4.13;;
52554;SDS011;38455;52.710;6.502;2022-10-16T17:11:58;17.50;;;3.65;;
52554;SDS011;38455;52.710;6.502;2022-10-16T17:14:23;12.63;;;3.38;;
52554;SDS011;38455;52.710;6.502;2022-10-16T17:16:49;9.02;;;3.67;;
52554;SDS011;38455;52.710;6.502;2022-10-16T17:19:17;7.43;;;3.50;;
52554;SDS011;38455;52.710;6.502;2022-10-16T17:21:44;9.68;;;3.67;;
52554;SDS011;38455;52.710;6.502;2022-10-16T17:24:12;11.88;;;3.65;;